Terminal Aerodrome Forecast
Issued by NWS

Home | Current Version | Previous Version | Text Only | Print | Product List | Glossary On
Versions: 1 2 3 4 5 6 7 8 9 10 11 12 13 14 15 16 17 18 19
000
FTUS45 KBOU 251739
TAFAPA
TAF
KAPA 251739Z 2518/2618 16006KT P6SM SCT140 BKN220
     FM252100 25008G13KT P6SM SCT080 BKN150
     FM260000 30010G16KT P6SM SCT110 BKN220
     FM260200 35008KT P6SM FEW120 SCT220
     FM260500 19007KT P6SM FEW150 SCT220=

USA.gov is the U.S. government's official web portal to all federal, state and local government web resources and services.